Time;durP1;ratioP1;P1;durP2;ratioP2;P2;SDS_P1;SDS_P2;PMS_P1;PMS_P2;Temp;Humidity;BMP_temperature;BMP_pressure;BME280_temperature;BME280_humidity;BME280_pressure;Samples;Min_cycle;Max_cycle;Signal;HPM_P1;HPM_P2
2022/10/15 00:00:34;;;;;;;3.40;0.90;;;16.00;99.90;;;;;;5072941;28;20414;-68
2022/10/15 00:03:00;;;;;;;1.30;0.83;;;16.10;99.90;;;;;;5073994;28;20828;-69
2022/10/15 00:05:25;;;;;;;1.17;0.60;;;16.20;99.90;;;;;;5067078;28;20677;-68
2022/10/15 00:07:52;;;;;;;0.90;0.53;;;16.20;99.90;;;;;;5073721;28;20695;-68
2022/10/15 00:10:17;;;;;;;1.03;0.60;;;16.20;99.90;;;;;;5076305;28;20709;-68
2022/10/15 00:12:43;;;;;;;3.33;0.50;;;16.10;99.90;;;;;;5076551;28;20415;-68
2022/10/15 00:15:09;;;;;;;1.43;0.73;;;16.10;99.90;;;;;;5076081;28;20301;-68
2022/10/15 00:17:36;;;;;;;1.77;0.60;;;16.30;99.90;;;;;;5076307;28;20192;-68
2022/10/15 00:20:03;;;;;;;1.23;0.50;;;16.20;99.90;;;;;;5075220;28;20426;-68
2022/10/15 00:22:29;;;;;;;1.30;0.70;;;16.30;99.90;;;;;;5058397;28;20499;-68
2022/10/15 00:24:55;;;;;;;1.73;0.70;;;16.40;99.90;;;;;;5076020;28;20451;-68
2022/10/15 00:27:20;;;;;;;1.17;0.57;;;16.40;99.90;;;;;;5075764;28;20173;-67
2022/10/15 00:29:46;;;;;;;1.37;0.90;;;16.20;99.90;;;;;;5075635;28;20220;-68
2022/10/15 00:32:11;;;;;;;1.67;0.70;;;16.20;99.90;;;;;;5075632;28;20179;-68
2022/10/15 00:34:37;;;;;;;1.60;0.60;;;16.10;99.90;;;;;;5075048;28;20233;-68
2022/10/15 00:37:03;;;;;;;0.90;0.60;;;16.10;99.90;;;;;;5075546;28;20203;-68
2022/10/15 00:39:29;;;;;;;1.17;0.50;;;16.30;99.90;;;;;;5075721;28;20186;-68
2022/10/15 00:41:54;;;;;;;0.80;0.50;;;16.20;99.90;;;;;;5075432;28;20176;-68
2022/10/15 00:44:20;;;;;;;1.20;0.60;;;16.10;99.90;;;;;;5075592;28;20190;-68
2022/10/15 00:46:48;;;;;;;1.70;0.60;;;16.10;99.90;;;;;;5075369;28;20169;-68
2022/10/15 00:49:22;;;;;;;1.93;0.50;;;16.10;99.90;;;;;;5074865;28;20692;-68
2022/10/15 00:52:22;;;;;;;0.80;0.60;;;16.10;99.90;;;;;;5075656;28;20392;-70
2022/10/15 00:54:54;;;;;;;1.30;0.87;;;16.00;99.90;;;;;;5042588;28;20437;-67
2022/10/15 00:57:19;;;;;;;0.80;0.53;;;16.10;99.90;;;;;;5075423;28;20440;-68
2022/10/15 00:59:53;;;;;;;1.00;0.60;;;16.10;99.90;;;;;;5075086;28;20409;-68
2022/10/15 01:02:19;;;;;;;1.00;0.50;;;16.10;99.90;;;;;;5075243;28;20214;-69
2022/10/15 01:04:46;;;;;;;1.57;0.57;;;16.10;99.90;;;;;;5073852;28;20450;-68
2022/10/15 01:07:11;;;;;;;0.90;0.60;;;16.10;99.90;;;;;;5075675;28;20406;-68
2022/10/15 01:09:38;;;;;;;0.80;0.50;;;16.10;99.90;;;;;;5075283;28;20411;-68
2022/10/15 01:12:10;;;;;;;1.10;0.60;;;16.20;99.90;;;;;;5075646;28;20172;-68
2022/10/15 01:14:43;;;;;;;0.77;0.50;;;16.20;99.90;;;;;;5099330;22;20492;-73
2022/10/15 01:17:33;;;;;;;1.93;0.60;;;16.10;99.90;;;;;;5075767;28;20442;-73
2022/10/15 01:20:20;;;;;;;2.03;0.50;;;16.20;99.90;;;;;;5075727;28;20472;-73
2022/10/15 01:23:02;;;;;;;2.43;0.70;;;16.30;99.90;;;;;;5076006;28;20900;-74
2022/10/15 01:25:45;;;;;;;1.20;0.60;;;16.20;99.90;;;;;;5075556;28;20469;-74
2022/10/15 01:28:28;;;;;;;0.90;0.67;;;16.20;99.90;;;;;;5074863;28;20546;-73
2022/10/15 01:31:00;;;;;;;1.13;0.50;;;16.20;99.90;;;;;;5074606;28;20733;-73
2022/10/15 01:33:40;;;;;;;1.33;0.50;;;16.20;99.90;;;;;;5074435;28;20754;-73
2022/10/15 01:36:30;;;;;;;1.00;0.50;;;16.20;99.90;;;;;;5074822;28;20987;-72
2022/10/15 01:39:03;;;;;;;1.73;0.70;;;16.20;99.90;;;;;;5075165;28;20437;-73
2022/10/15 01:41:57;;;;;;;1.00;0.60;;;16.10;99.90;;;;;;5074796;28;20784;-73
2022/10/15 01:44:43;;;;;;;1.07;0.50;;;16.20;99.90;;;;;;5076940;28;20420;-73
2022/10/15 01:47:32;;;;;;;1.37;0.60;;;16.20;99.90;;;;;;5076633;28;20399;-74
2022/10/15 01:50:01;;;;;;;0.80;0.57;;;16.40;99.90;;;;;;5075535;28;20785;-73
2022/10/15 01:52:31;;;;;;;0.70;0.50;;;16.40;99.90;;;;;;5094325;28;20764;-72
2022/10/15 01:54:58;;;;;;;1.00;0.50;;;16.30;99.90;;;;;;5094421;28;20817;-72
2022/10/15 01:57:27;;;;;;;0.90;0.60;;;16.40;99.90;;;;;;5094165;28;20439;-73
2022/10/15 01:59:53;;;;;;;0.80;0.50;;;16.40;99.90;;;;;;5093931;28;20396;-73
2022/10/15 02:02:18;;;;;;;1.37;0.50;;;16.50;99.90;;;;;;5076216;28;20780;-72
2022/10/15 02:04:44;;;;;;;0.80;0.50;;;16.50;99.90;;;;;;5093294;28;20438;-73
2022/10/15 02:07:46;;;;;;;0.80;0.50;;;16.50;99.90;;;;;;5094423;28;20173;-73
2022/10/15 02:10:23;;;;;;;2.23;0.70;;;16.50;99.90;;;;;;5094641;28;20152;-73
2022/10/15 02:13:01;;;;;;;1.23;0.50;;;16.50;99.90;;;;;;5094515;28;20426;-72
2022/10/15 02:15:47;;;;;;;1.90;0.50;;;16.50;99.90;;;;;;5093960;28;20444;-73
2022/10/15 02:18:19;;;;;;;0.90;0.50;;;16.40;99.90;;;;;;5094190;28;20435;-74
2022/10/15 02:21:07;;;;;;;1.63;0.70;;;16.40;99.90;;;;;;5094888;28;20386;-73
2022/10/15 02:23:51;;;;;;;0.97;0.60;;;16.50;99.90;;;;;;5076333;28;20458;-73
2022/10/15 02:26:18;;;;;;;1.10;0.63;;;16.50;99.90;;;;;;5093306;28;20426;-74
2022/10/15 02:28:48;;;;;;;4.67;0.67;;;16.50;99.90;;;;;;5094349;28;20406;-73
2022/10/15 02:31:17;;;;;;;1.00;0.60;;;16.50;99.90;;;;;;5094264;28;20873;-73
2022/10/15 02:33:44;;;;;;;1.13;0.60;;;16.50;99.90;;;;;;5075693;28;20421;-74
2022/10/15 02:36:11;;;;;;;0.90;0.50;;;16.50;99.90;;;;;;5075734;28;20445;-73
2022/10/15 02:38:39;;;;;;;1.30;0.70;;;16.40;99.90;;;;;;5093772;28;20450;-73
2022/10/15 02:41:07;;;;;;;1.07;0.63;;;16.50;99.90;;;;;;5093807;28;20410;-73
2022/10/15 02:43:36;;;;;;;2.80;0.60;;;16.70;99.90;;;;;;5093832;28;20417;-74
2022/10/15 02:46:01;;;;;;;1.63;0.60;;;16.70;99.90;;;;;;5093454;28;20936;-74
2022/10/15 02:48:27;;;;;;;0.60;0.40;;;16.70;99.90;;;;;;5093577;28;20406;-73
2022/10/15 02:50:52;;;;;;;1.30;0.50;;;16.80;99.90;;;;;;5094217;28;20181;-73
2022/10/15 02:53:18;;;;;;;0.93;0.50;;;16.90;99.90;;;;;;5093577;28;20225;-73
2022/10/15 02:55:45;;;;;;;0.90;0.70;;;16.90;99.90;;;;;;5093571;28;20192;-73
2022/10/15 02:58:11;;;;;;;0.80;0.60;;;16.90;99.90;;;;;;5086800;28;20196;-73
2022/10/15 03:00:37;;;;;;;0.87;0.50;;;17.00;99.90;;;;;;5075936;28;20410;-72
2022/10/15 03:03:02;;;;;;;0.60;0.40;;;16.80;99.90;;;;;;5076451;28;20173;-73
2022/10/15 03:05:28;;;;;;;0.80;0.53;;;16.80;99.90;;;;;;5093335;28;20540;-73
2022/10/15 03:07:53;;;;;;;4.10;0.60;;;16.80;99.90;;;;;;5093636;28;20638;-72
2022/10/15 03:10:19;;;;;;;0.70;0.40;;;16.80;99.90;;;;;;5093412;28;20775;-73
2022/10/15 03:12:45;;;;;;;0.70;0.50;;;16.90;99.90;;;;;;5093146;28;20196;-72
2022/10/15 03:15:11;;;;;;;0.60;0.37;;;16.90;99.90;;;;;;5093158;28;20450;-73
2022/10/15 03:17:36;;;;;;;3.60;0.50;;;17.00;99.90;;;;;;5093820;28;20566;-73
2022/10/15 03:20:02;;;;;;;2.10;0.50;;;17.00;99.90;;;;;;5092839;28;20527;-72
2022/10/15 03:22:28;;;;;;;1.23;0.50;;;17.00;99.90;;;;;;5093542;28;20192;-73
2022/10/15 03:24:54;;;;;;;0.70;0.40;;;17.00;99.90;;;;;;5093163;28;20418;-73
2022/10/15 03:27:19;;;;;;;3.67;0.50;;;17.00;99.90;;;;;;5075007;28;20662;-73
2022/10/15 03:29:45;;;;;;;0.87;0.43;;;17.10;99.90;;;;;;5093464;28;20161;-73
2022/10/15 03:32:10;;;;;;;1.27;0.50;;;17.00;99.90;;;;;;5093504;28;20161;-72
2022/10/15 03:34:36;;;;;;;1.00;0.50;;;17.10;99.90;;;;;;5089463;28;20288;-73
2022/10/15 03:37:01;;;;;;;1.83;0.50;;;17.10;99.90;;;;;;5095926;28;20193;-73
2022/10/15 03:39:27;;;;;;;0.60;0.40;;;17.00;99.90;;;;;;5097562;28;20210;-74
2022/10/15 03:41:52;;;;;;;0.70;0.40;;;16.90;99.90;;;;;;5078902;28;20184;-73
2022/10/15 03:44:18;;;;;;;0.70;0.40;;;16.80;99.90;;;;;;5097253;28;20177;-72
2022/10/15 03:46:44;;;;;;;0.60;0.40;;;17.00;99.90;;;;;;5097081;28;20572;-73
2022/10/15 03:49:10;;;;;;;1.00;0.50;;;17.00;99.90;;;;;;5096319;28;20451;-73
2022/10/15 03:51:36;;;;;;;1.30;0.60;;;17.20;99.90;;;;;;5097174;28;20157;-73
2022/10/15 03:54:02;;;;;;;2.20;1.90;;;17.30;99.90;;;;;;5078629;28;20405;-72
2022/10/15 03:56:28;;;;;;;0.97;0.50;;;17.30;99.90;;;;;;5096755;28;20527;-72
2022/10/15 03:58:53;;;;;;;0.70;0.40;;;17.30;99.90;;;;;;5096808;28;20395;-74
2022/10/15 04:01:19;;;;;;;0.90;0.40;;;17.20;99.90;;;;;;5097060;28;20169;-74
2022/10/15 04:03:45;;;;;;;0.70;0.50;;;17.20;99.90;;;;;;5095681;28;20170;-74
2022/10/15 04:06:10;;;;;;;2.13;0.50;;;17.30;99.90;;;;;;5096585;28;20181;-73
2022/10/15 04:08:36;;;;;;;0.67;0.40;;;17.30;99.90;;;;;;5096612;28;20206;-73
2022/10/15 04:11:02;;;;;;;0.80;0.50;;;17.30;99.90;;;;;;5096565;28;20165;-73
2022/10/15 04:13:28;;;;;;;0.70;0.50;;;17.30;99.90;;;;;;5096799;28;20635;-73
2022/10/15 04:15:54;;;;;;;1.37;0.50;;;17.30;99.90;;;;;;5096311;28;20215;-74
2022/10/15 04:18:20;;;;;;;0.77;0.57;;;17.30;99.90;;;;;;5096160;28;20455;-72
2022/10/15 04:20:47;;;;;;;0.83;0.50;;;17.40;99.90;;;;;;5077846;28;20169;-73
2022/10/15 04:23:14;;;;;;;0.70;0.50;;;17.50;99.90;;;;;;5096636;28;20415;-73
2022/10/15 04:25:39;;;;;;;0.70;0.50;;;17.50;99.90;;;;;;5096592;28;20419;-72
2022/10/15 04:28:05;;;;;;;0.80;0.60;;;17.40;99.90;;;;;;5096301;28;20418;-72
2022/10/15 04:30:31;;;;;;;0.70;0.50;;;17.40;99.90;;;;;;5096212;28;20180;-72
2022/10/15 04:32:56;;;;;;;0.70;0.50;;;17.30;99.90;;;;;;5096023;28;20569;-73
2022/10/15 04:35:22;;;;;;;1.13;0.60;;;17.30;99.90;;;;;;5095693;28;20427;-73
2022/10/15 04:37:48;;;;;;;2.20;0.57;;;17.30;99.90;;;;;;5095970;28;20192;-72
2022/10/15 04:40:14;;;;;;;1.53;0.50;;;17.10;99.90;;;;;;5095996;28;20257;-73
2022/10/15 04:42:39;;;;;;;0.70;0.40;;;17.30;99.90;;;;;;5096273;28;20567;-72
2022/10/15 04:45:06;;;;;;;0.67;0.40;;;17.40;99.90;;;;;;5096080;28;20671;-73
2022/10/15 04:47:32;;;;;;;0.90;0.60;;;17.50;99.90;;;;;;5095089;28;20165;-73
2022/10/15 04:49:57;;;;;;;0.87;0.50;;;17.50;99.90;;;;;;5095329;28;20415;-73
2022/10/15 04:52:23;;;;;;;2.93;0.60;;;17.50;99.90;;;;;;5095797;28;20721;-73
2022/10/15 04:54:48;;;;;;;0.80;0.57;;;17.40;99.90;;;;;;5095743;28;20220;-73
2022/10/15 04:57:14;;;;;;;0.80;0.50;;;17.30;99.90;;;;;;5095686;28;20193;-73
2022/10/15 04:59:41;;;;;;;1.00;0.70;;;17.10;99.90;;;;;;5095775;28;20647;-73
2022/10/15 05:02:06;;;;;;;0.70;0.50;;;17.20;99.90;;;;;;5095592;28;20618;-73
2022/10/15 05:04:32;;;;;;;1.33;0.60;;;17.10;99.90;;;;;;5094380;28;20474;-73
2022/10/15 05:06:58;;;;;;;1.83;0.70;;;17.20;99.90;;;;;;5096048;28;20411;-72
2022/10/15 05:09:23;;;;;;;0.67;0.40;;;17.30;99.90;;;;;;5095772;28;20173;-73
2022/10/15 05:11:49;;;;;;;1.80;0.60;;;17.40;99.90;;;;;;5095990;28;20248;-73
2022/10/15 05:14:15;;;;;;;1.97;1.13;;;17.30;99.90;;;;;;5095234;28;20190;-73
2022/10/15 05:16:40;;;;;;;1.00;0.70;;;17.40;99.90;;;;;;5095321;28;20249;-73
2022/10/15 05:19:07;;;;;;;1.67;0.70;;;17.40;99.90;;;;;;5095047;28;20169;-73
2022/10/15 05:21:34;;;;;;;0.83;0.57;;;17.50;99.90;;;;;;5095188;28;20176;-73
2022/10/15 05:24:00;;;;;;;0.93;0.60;;;17.50;99.90;;;;;;5095493;28;20430;-73
2022/10/15 05:26:27;;;;;;;1.00;0.70;;;17.50;99.90;;;;;;5095034;28;20423;-72
2022/10/15 05:28:56;;;;;;;1.07;0.60;;;17.40;99.90;;;;;;5076965;28;20937;-73
2022/10/15 05:31:23;;;;;;;2.87;0.60;;;17.50;99.90;;;;;;5095209;28;20415;-73
2022/10/15 05:33:52;;;;;;;1.10;0.50;;;17.40;99.90;;;;;;5094659;28;20416;-72
2022/10/15 05:36:19;;;;;;;1.83;0.60;;;17.40;99.90;;;;;;5091853;28;20443;-73
2022/10/15 05:38:50;;;;;;;2.07;0.50;;;17.50;99.90;;;;;;5094885;28;20455;-73
2022/10/15 05:41:16;;;;;;;1.00;0.50;;;17.40;99.90;;;;;;5095148;28;20394;-73
2022/10/15 05:43:41;;;;;;;1.10;0.60;;;17.40;99.90;;;;;;5095464;28;20412;-73
2022/10/15 05:46:08;;;;;;;1.17;0.53;;;17.50;99.90;;;;;;5095559;28;20189;-73
2022/10/15 05:48:33;;;;;;;1.17;0.70;;;17.50;99.90;;;;;;5094909;28;20256;-73
2022/10/15 05:51:01;;;;;;;0.80;0.50;;;17.50;99.90;;;;;;5085411;28;20950;-73
2022/10/15 05:53:26;;;;;;;0.90;0.70;;;17.40;99.90;;;;;;5091996;28;20260;-73
2022/10/15 05:55:52;;;;;;;0.83;0.70;;;17.50;99.90;;;;;;5076605;28;21003;-73
2022/10/15 05:58:18;;;;;;;1.20;0.70;;;17.40;99.90;;;;;;5094802;28;20539;-73
2022/10/15 06:00:44;;;;;;;1.10;0.60;;;17.50;99.90;;;;;;5093508;28;20433;-74
2022/10/15 06:03:13;;;;;;;0.90;0.50;;;17.50;99.90;;;;;;5093477;28;20162;-73
2022/10/15 06:05:39;;;;;;;2.70;0.50;;;17.40;99.90;;;;;;5094152;28;20189;-72
2022/10/15 06:08:05;;;;;;;0.90;0.70;;;17.30;99.90;;;;;;5094380;28;20460;-74
2022/10/15 06:10:34;;;;;;;1.63;0.70;;;17.30;99.90;;;;;;5094255;28;20173;-73
2022/10/15 06:13:00;;;;;;;0.83;0.60;;;17.20;99.90;;;;;;5076229;28;20176;-73
2022/10/15 06:15:25;;;;;;;1.60;0.70;;;17.00;99.90;;;;;;5094008;28;20450;-73
2022/10/15 06:17:54;;;;;;;1.17;0.63;;;17.00;99.90;;;;;;5076028;28;20203;-74
2022/10/15 06:20:19;;;;;;;0.80;0.60;;;17.10;99.90;;;;;;5093642;28;20662;-73
2022/10/15 06:22:45;;;;;;;2.60;0.60;;;17.20;99.90;;;;;;5094383;28;20411;-73
2022/10/15 06:25:11;;;;;;;0.70;0.50;;;17.20;99.90;;;;;;5075826;28;20279;-73
2022/10/15 06:27:36;;;;;;;1.03;0.63;;;17.20;99.90;;;;;;5075955;28;20263;-74
2022/10/15 06:30:02;;;;;;;1.00;0.57;;;17.20;99.90;;;;;;5093940;28;20173;-73
2022/10/15 06:32:28;;;;;;;0.90;0.50;;;17.20;99.90;;;;;;5094181;28;20259;-73
2022/10/15 06:34:53;;;;;;;0.70;0.50;;;17.10;99.90;;;;;;5093414;28;20943;-74
2022/10/15 06:37:19;;;;;;;1.00;0.80;;;17.20;99.90;;;;;;5075694;28;20675;-73
2022/10/15 06:39:45;;;;;;;1.30;0.60;;;17.20;99.90;;;;;;5093871;28;20571;-73
2022/10/15 06:42:11;;;;;;;1.03;0.80;;;17.10;99.90;;;;;;5093881;28;20577;-72
2022/10/15 06:44:37;;;;;;;1.77;1.00;;;17.20;99.90;;;;;;5094352;28;20418;-73
2022/10/15 06:47:03;;;;;;;1.90;0.90;;;17.20;99.90;;;;;;5094264;28;20480;-73
2022/10/15 06:49:29;;;;;;;1.43;0.80;;;17.20;99.90;;;;;;5093244;28;20411;-75
2022/10/15 06:51:54;;;;;;;0.77;0.77;;;17.10;99.90;;;;;;5093787;28;20176;-73
2022/10/15 06:54:20;;;;;;;0.80;0.70;;;17.20;99.90;;;;;;5075417;28;20169;-73
2022/10/15 06:56:45;;;;;;;1.73;0.70;;;17.40;99.90;;;;;;5093616;28;20523;-73
2022/10/15 06:59:11;;;;;;;1.13;0.90;;;17.20;99.90;;;;;;5093391;28;20518;-75
2022/10/15 07:01:36;;;;;;;1.50;0.73;;;17.20;99.90;;;;;;5093463;28;20586;-73
2022/10/15 07:04:02;;;;;;;2.33;1.20;;;17.10;99.90;;;;;;5091998;28;20177;-72
2022/10/15 07:06:27;;;;;;;1.50;0.90;;;17.10;99.90;;;;;;5093858;28;20177;-74
2022/10/15 07:08:53;;;;;;;3.67;1.20;;;17.10;99.90;;;;;;5093737;28;20268;-73
2022/10/15 07:11:19;;;;;;;1.93;1.10;;;17.10;99.90;;;;;;5093379;28;20173;-73
2022/10/15 07:13:44;;;;;;;2.10;1.03;;;17.20;99.90;;;;;;5093491;28;20172;-73
2022/10/15 07:16:11;;;;;;;1.60;1.00;;;17.20;99.90;;;;;;5075094;28;20205;-74
2022/10/15 07:18:38;;;;;;;4.03;0.90;;;17.20;99.90;;;;;;5093069;28;20568;-72
2022/10/15 07:21:05;;;;;;;1.73;1.00;;;17.20;99.90;;;;;;5074736;28;20407;-74
2022/10/15 07:23:31;;;;;;;2.40;0.80;;;17.20;99.90;;;;;;5093422;28;20450;-73
2022/10/15 07:25:58;;;;;;;1.03;0.80;;;17.20;99.90;;;;;;5093799;28;20431;-73
2022/10/15 07:28:23;;;;;;;0.80;0.60;;;17.30;99.90;;;;;;5093759;28;20184;-75
2022/10/15 07:30:49;;;;;;;3.13;1.13;;;17.50;99.90;;;;;;5090153;28;20428;-73
2022/10/15 07:33:15;;;;;;;1.77;1.20;;;17.50;99.90;;;;;;5092960;28;20229;-74
2022/10/15 07:35:40;;;;;;;2.97;1.00;;;17.60;99.90;;;;;;5093123;28;20603;-74
2022/10/15 07:38:06;;;;;;;1.30;1.00;;;17.70;99.90;;;;;;5093097;28;20246;-74
2022/10/15 07:40:32;;;;;;;1.83;1.13;;;17.90;99.90;;;;;;5075418;28;20165;-74
2022/10/15 07:42:58;;;;;;;4.80;2.00;;;17.90;99.90;;;;;;5093409;28;20539;-73
2022/10/15 07:45:25;;;;;;;2.93;2.23;;;18.00;99.90;;;;;;5091074;22;20221;-69
2022/10/15 07:47:51;;;;;;;1.53;1.23;;;17.90;99.90;;;;;;5072547;28;20439;-70
2022/10/15 07:50:18;;;;;;;1.37;1.27;;;18.00;99.90;;;;;;5072489;28;20408;-70
2022/10/15 07:52:43;;;;;;;2.80;1.13;;;18.20;99.90;;;;;;5072382;28;20979;-70
2022/10/15 07:55:09;;;;;;;2.50;1.07;;;18.20;99.90;;;;;;5072270;28;20477;-70
2022/10/15 07:57:35;;;;;;;1.90;1.00;;;18.10;99.90;;;;;;5054488;28;20194;-70
2022/10/15 08:00:00;;;;;;;3.80;1.13;;;18.30;99.90;;;;;;5053873;28;20583;-70
2022/10/15 08:02:26;;;;;;;1.50;0.97;;;17.90;99.90;;;;;;5072580;28;20176;-70
2022/10/15 08:04:51;;;;;;;1.13;0.90;;;18.00;99.90;;;;;;5070670;28;20205;-70
2022/10/15 08:07:17;;;;;;;1.90;1.00;;;18.00;99.90;;;;;;5072733;28;20170;-70
2022/10/15 08:09:43;;;;;;;1.47;1.13;;;18.00;99.90;;;;;;5072508;28;20228;-70
2022/10/15 08:12:08;;;;;;;1.17;0.73;;;17.90;99.90;;;;;;5072045;28;20368;-70
2022/10/15 08:14:35;;;;;;;1.43;0.67;;;17.90;99.90;;;;;;5072438;28;20190;-69
2022/10/15 08:17:02;;;;;;;1.03;0.80;;;18.00;99.90;;;;;;5072124;28;20186;-70
2022/10/15 08:19:28;;;;;;;0.80;0.80;;;18.10;99.90;;;;;;5071432;28;20412;-70
2022/10/15 08:21:54;;;;;;;1.43;0.90;;;18.20;99.90;;;;;;5071695;28;20769;-70
2022/10/15 08:24:20;;;;;;;1.10;0.77;;;18.30;99.90;;;;;;5073556;28;20194;-70
2022/10/15 08:26:45;;;;;;;1.33;0.80;;;18.40;99.90;;;;;;5075724;28;20537;-70
2022/10/15 08:29:11;;;;;;;2.07;1.07;;;18.40;99.90;;;;;;5075555;28;20232;-70
2022/10/15 08:31:38;;;;;;;1.93;0.80;;;18.50;99.90;;;;;;5075430;28;20574;-70
2022/10/15 08:34:04;;;;;;;1.43;0.83;;;18.70;99.90;;;;;;5075762;28;20478;-70
2022/10/15 08:36:30;;;;;;;1.20;0.70;;;18.70;99.90;;;;;;5075451;28;20400;-70
2022/10/15 08:38:55;;;;;;;3.53;0.70;;;19.00;99.90;;;;;;5074849;28;20439;-70
2022/10/15 08:41:37;;;;;;;1.10;0.83;;;19.10;99.90;;;;;;5075497;28;20162;-70
2022/10/15 08:44:02;;;;;;;1.53;1.00;;;19.20;99.90;;;;;;5051784;28;20575;-70
2022/10/15 08:46:36;;;;;;;1.67;1.10;;;19.20;99.90;;;;;;5038650;28;20420;-70
2022/10/15 08:49:03;;;;;;;2.70;1.57;;;19.50;99.90;;;;;;5054788;28;20213;-70
2022/10/15 08:51:47;;;;;;;3.60;0.90;;;19.50;99.90;;;;;;5054244;28;20431;-70
2022/10/15 08:54:16;;;;;;;0.90;0.67;;;19.30;99.90;;;;;;5073047;28;20436;-70
2022/10/15 08:57:02;;;;;;;0.93;0.70;;;19.00;99.90;;;;;;5074976;28;20414;-70
2022/10/15 08:59:40;;;;;;;2.10;1.10;;;19.10;99.90;;;;;;5075164;28;20442;-70
2022/10/15 09:02:25;;;;;;;2.27;1.57;;;19.10;99.90;;;;;;5075410;28;20393;-70
2022/10/15 09:05:20;;;;;;;1.03;0.87;;;18.90;99.90;;;;;;5073708;28;20436;-70
2022/10/15 09:08:00;;;;;;;7.70;0.80;;;19.00;99.90;;;;;;5075387;28;20400;-70
2022/10/15 09:10:40;;;;;;;1.17;0.70;;;18.90;99.90;;;;;;5075090;28;20793;-70
2022/10/15 09:13:17;;;;;;;2.23;1.30;;;19.00;99.90;;;;;;5074939;28;20380;-70
2022/10/15 09:16:24;;;;;;;3.67;1.30;;;19.20;99.90;;;;;;5056863;28;20892;-70
2022/10/15 09:18:52;;;;;;;2.03;0.90;;;19.20;99.90;;;;;;5043709;28;20471;-70
2022/10/15 09:21:19;;;;;;;1.57;0.90;;;19.00;99.90;;;;;;5074500;28;20408;-70
2022/10/15 09:23:45;;;;;;;1.00;0.80;;;19.20;99.90;;;;;;5074251;28;20486;-69
2022/10/15 09:26:27;;;;;;;1.33;0.90;;;19.40;99.90;;;;;;5074360;28;20404;-70
2022/10/15 09:29:02;;;;;;;2.07;0.67;;;19.50;99.90;;;;;;5074826;28;20150;-70
2022/10/15 09:31:35;;;;;;;0.93;0.70;;;19.50;99.90;;;;;;5074442;28;20427;-70
2022/10/15 09:34:23;;;;;;;1.83;0.70;;;19.40;99.90;;;;;;5073433;28;20553;-70
2022/10/15 09:36:53;;;;;;;1.90;0.70;;;19.30;99.90;;;;;;5074915;28;20385;-70
2022/10/15 09:39:42;;;;;;;2.60;0.90;;;19.40;99.90;;;;;;5074174;28;20437;-70
2022/10/15 09:42:16;;;;;;;0.80;0.60;;;19.50;99.90;;;;;;5074383;28;20400;-70
2022/10/15 09:44:44;;;;;;;1.03;0.60;;;19.60;99.90;;;;;;5073865;28;20442;-70
2022/10/15 09:47:22;;;;;;;1.87;0.87;;;19.80;99.90;;;;;;5074111;28;20399;-70
2022/10/15 09:49:47;;;;;;;2.50;1.13;;;20.10;99.90;;;;;;5073758;28;20435;-70
2022/10/15 09:52:34;;;;;;;0.83;0.60;;;19.70;99.90;;;;;;5074161;28;20494;-70
2022/10/15 09:55:16;;;;;;;1.50;0.70;;;19.60;99.90;;;;;;5073825;28;20190;-70
2022/10/15 09:57:47;;;;;;;1.40;0.80;;;19.60;99.90;;;;;;5073769;28;20439;-70
2022/10/15 10:00:14;;;;;;;1.20;0.80;;;19.50;99.90;;;;;;5073764;28;20381;-70
2022/10/15 10:02:39;;;;;;;2.10;0.77;;;19.40;99.90;;;;;;5055652;28;20485;-70
2022/10/15 10:05:30;;;;;;;1.10;0.73;;;19.90;99.90;;;;;;5072181;28;20971;-70
2022/10/15 10:08:20;;;;;;;1.63;0.90;;;20.30;99.90;;;;;;5063798;28;20187;-70
2022/10/15 10:11:00;;;;;;;1.90;0.80;;;20.40;99.90;;;;;;5073541;28;20396;-70
2022/10/15 10:13:49;;;;;;;1.60;1.00;;;20.30;99.90;;;;;;5073188;28;20443;-69
2022/10/15 10:16:17;;;;;;;1.20;0.60;;;20.30;99.90;;;;;;5073115;28;20397;-70
2022/10/15 10:18:49;;;;;;;1.00;0.60;;;20.30;99.90;;;;;;5073090;28;20477;-70
2022/10/15 10:21:27;;;;;;;1.77;0.90;;;20.20;99.90;;;;;;5073359;28;20389;-70
2022/10/15 10:23:52;;;;;;;1.63;1.10;;;20.20;99.90;;;;;;5074066;28;20948;-70
2022/10/15 10:26:19;;;;;;;1.37;0.77;;;20.20;99.90;;;;;;5073495;28;20408;-70
2022/10/15 10:28:48;;;;;;;2.67;0.90;;;20.40;99.90;;;;;;5073437;28;20177;-70
2022/10/15 10:31:14;;;;;;;1.23;0.80;;;20.50;99.90;;;;;;5073394;28;20495;-70
2022/10/15 10:33:48;;;;;;;1.63;0.77;;;20.50;99.90;;;;;;5072944;28;20535;-70
2022/10/15 10:36:25;;;;;;;4.40;1.13;;;20.40;99.90;;;;;;5073277;28;20635;-70
2022/10/15 10:39:20;;;;;;;2.50;1.03;;;20.50;99.90;;;;;;5072949;28;20432;-70
2022/10/15 10:42:03;;;;;;;0.83;0.77;;;20.40;99.90;;;;;;5065633;28;20427;-70
2022/10/15 10:44:37;;;;;;;1.30;0.80;;;20.20;99.90;;;;;;5072821;28;20463;-70
2022/10/15 10:47:08;;;;;;;1.83;0.80;;;20.00;99.90;;;;;;5072423;28;20404;-70
2022/10/15 10:49:44;;;;;;;1.60;1.13;;;20.10;99.90;;;;;;5072656;28;20396;-70
2022/10/15 10:52:32;;;;;;;1.10;0.80;;;20.70;99.90;;;;;;5073181;28;20388;-69
2022/10/15 10:55:21;;;;;;;1.90;1.10;;;21.60;99.90;;;;;;5072918;28;20428;-69
2022/10/15 10:57:53;;;;;;;1.00;0.67;;;22.50;99.90;;;;;;5072959;28;20794;-70
2022/10/15 11:00:22;;;;;;;2.60;0.90;;;22.90;99.90;;;;;;5073113;28;20824;-69
2022/10/15 11:02:49;;;;;;;2.30;1.00;;;22.10;99.90;;;;;;5072692;28;20503;-70
2022/10/15 11:05:23;;;;;;;2.47;0.87;;;22.20;99.90;;;;;;5071430;28;20452;-70
2022/10/15 11:08:06;;;;;;;1.27;0.73;;;22.30;99.90;;;;;;5072845;28;20389;-70
2022/10/15 11:11:09;;;;;;;3.50;1.17;;;22.00;99.90;;;;;;5073182;28;20404;-70
2022/10/15 11:13:43;;;;;;;1.83;0.70;;;22.10;99.90;;;;;;5072753;28;20894;-69
2022/10/15 11:16:32;;;;;;;1.90;0.80;;;21.60;99.90;;;;;;5072765;28;20404;-70
2022/10/15 11:19:15;;;;;;;0.90;0.80;;;21.50;99.90;;;;;;5072600;28;20452;-70
2022/10/15 11:21:52;;;;;;;2.03;0.90;;;21.40;99.90;;;;;;5072964;28;20406;-70
2022/10/15 11:24:28;;;;;;;1.60;1.10;;;21.50;99.90;;;;;;5054465;28;20432;-70
2022/10/15 11:27:20;;;;;;;5.10;1.20;;;21.50;99.90;;;;;;5072687;28;20380;-70
2022/10/15 11:30:03;;;;;;;1.60;1.00;;;21.90;99.90;;;;;;5072691;28;20415;-70
2022/10/15 11:32:36;;;;;;;1.40;0.80;;;21.70;99.90;;;;;;5072314;28;20388;-70
2022/10/15 11:35:13;;;;;;;1.03;0.70;;;20.90;99.90;;;;;;5052848;28;20523;-68
2022/10/15 11:37:48;;;;;;;1.13;0.90;;;21.10;99.90;;;;;;5065382;28;20444;-70
2022/10/15 11:40:35;;;;;;;1.60;0.90;;;21.20;99.90;;;;;;5060609;28;20897;-70
2022/10/15 11:43:04;;;;;;;1.13;0.80;;;20.90;99.90;;;;;;5071317;28;20816;-70
2022/10/15 11:46:01;;;;;;;1.70;1.10;;;20.90;99.90;;;;;;5072215;28;20454;-69
2022/10/15 11:48:50;;;;;;;1.60;0.80;;;21.10;99.90;;;;;;5028046;28;20416;-69
2022/10/15 11:51:30;;;;;;;1.03;0.60;;;21.40;99.90;;;;;;5071435;28;20423;-69
2022/10/15 11:54:03;;;;;;;3.03;0.90;;;21.30;99.90;;;;;;5071945;28;20435;-70
2022/10/15 11:56:35;;;;;;;1.93;1.00;;;21.00;99.90;;;;;;5072502;28;20408;-69
2022/10/15 11:59:33;;;;;;;2.70;1.03;;;20.80;99.90;;;;;;5076020;28;20444;-70
2022/10/15 12:02:10;;;;;;;1.30;0.90;;;21.10;99.90;;;;;;5058148;28;20424;-70
2022/10/15 12:04:55;;;;;;;9.53;1.53;;;23.60;99.90;;;;;;5071420;28;20444;-70
2022/10/15 12:07:27;;;;;;;2.20;0.67;;;25.20;99.90;;;;;;5067724;28;20415;-70
2022/10/15 12:09:59;;;;;;;1.27;0.73;;;25.00;99.90;;;;;;5076250;28;20902;-70
2022/10/15 12:12:55;;;;;;;1.43;0.70;;;24.20;99.90;;;;;;5076353;28;20388;-70
2022/10/15 12:15:40;;;;;;;2.70;0.77;;;23.00;99.90;;;;;;5075369;28;20444;-70
2022/10/15 12:18:14;;;;;;;1.03;0.63;;;22.40;99.90;;;;;;5076286;28;20432;-70
2022/10/15 12:20:41;;;;;;;1.40;0.70;;;21.60;99.90;;;;;;5074251;28;20937;-70
2022/10/15 12:23:35;;;;;;;2.10;0.80;;;21.30;99.90;;;;;;5057763;28;20405;-70
2022/10/15 12:26:21;;;;;;;2.50;0.87;;;21.50;99.90;;;;;;5076023;28;20492;-70
2022/10/15 12:28:49;;;;;;;2.80;1.07;;;21.70;99.90;;;;;;5075509;28;20902;-70
2022/10/15 12:31:14;;;;;;;3.60;0.80;;;21.70;99.90;;;;;;5075634;28;20419;-70
2022/10/15 12:33:54;;;;;;;1.27;0.90;;;21.40;99.90;;;;;;5075395;28;20771;-70
2022/10/15 12:36:29;;;;;;;1.27;0.60;;;21.30;99.90;;;;;;5075436;28;20186;-70
2022/10/15 12:39:00;;;;;;;2.23;0.83;;;21.20;99.90;;;;;;5075680;28;20440;-70
2022/10/15 12:41:46;;;;;;;1.70;0.80;;;21.20;99.90;;;;;;5075473;28;20404;-69
2022/10/15 12:44:30;;;;;;;0.90;0.60;;;21.00;99.90;;;;;;5075157;28;20527;-70
2022/10/15 12:46:57;;;;;;;1.10;0.70;;;20.60;99.90;;;;;;5075467;28;20384;-70
2022/10/15 12:49:26;;;;;;;3.23;0.80;;;20.60;99.90;;;;;;5075549;28;20748;-70
2022/10/15 12:51:56;;;;;;;1.90;0.70;;;20.40;99.90;;;;;;5074727;28;20451;-69
2022/10/15 12:54:40;;;;;;;1.10;0.60;;;20.20;99.90;;;;;;5075667;28;20771;-69
2022/10/15 12:57:33;;;;;;;1.20;0.87;;;20.10;99.90;;;;;;5075387;28;20413;-70
2022/10/15 13:00:00;;;;;;;1.50;0.87;;;20.30;99.90;;;;;;5075155;28;20453;-70
2022/10/15 13:02:39;;;;;;;1.20;0.90;;;20.40;99.90;;;;;;5057243;28;20412;-70
2022/10/15 13:05:07;;;;;;;3.70;1.00;;;20.60;99.90;;;;;;5074096;28;20501;-70
2022/10/15 13:07:38;;;;;;;2.20;1.00;;;20.60;99.90;;;;;;5075033;28;20495;-70